sensor_id;sensor_type;location;lat;lon;timestamp;pressure;altitude;pressure_sealevel;temperature;humidity
72585;BME280;60618;40.084;32.908;2023-04-05T00:00:50;88641.59;;;6.94;83.69
72585;BME280;60618;40.084;32.908;2023-04-05T00:03:17;88640.69;;;7.02;83.18
72585;BME280;60618;40.084;32.908;2023-04-05T00:05:45;88646.56;;;7.18;82.21
72585;BME280;60618;40.084;32.908;2023-04-05T00:08:12;88638.28;;;7.36;81.47
72585;BME280;60618;40.084;32.908;2023-04-05T00:10:39;88645.03;;;7.37;81.23
72585;BME280;60618;40.084;32.908;2023-04-05T00:13:06;88646.31;;;7.47;80.95
72585;BME280;60618;40.084;32.908;2023-04-05T00:15:33;88646.81;;;7.51;80.66
72585;BME280;60618;40.084;32.908;2023-04-05T00:18:00;88652.63;;;7.61;80.70
72585;BME280;60618;40.084;32.908;2023-04-05T00:20:27;88646.94;;;7.74;79.74
72585;BME280;60618;40.084;32.908;2023-04-05T00:22:54;88644.50;;;7.70;79.56
72585;BME280;60618;40.084;32.908;2023-04-05T00:25:21;88642.75;;;7.61;79.38
72585;BME280;60618;40.084;32.908;2023-04-05T00:27:48;88646.22;;;7.36;80.96
72585;BME280;60618;40.084;32.908;2023-04-05T00:30:15;88645.41;;;7.24;80.95
72585;BME280;60618;40.084;32.908;2023-04-05T00:32:41;88642.97;;;6.83;83.00
72585;BME280;60618;40.084;32.908;2023-04-05T00:35:08;88653.19;;;6.70;83.48
72585;BME280;60618;40.084;32.908;2023-04-05T00:37:35;88645.66;;;6.63;84.51
72585;BME280;60618;40.084;32.908;2023-04-05T00:40:02;88644.41;;;6.85;82.92
72585;BME280;60618;40.084;32.908;2023-04-05T00:42:29;88646.41;;;6.95;82.69
72585;BME280;60618;40.084;32.908;2023-04-05T00:44:56;88657.47;;;6.94;83.32
72585;BME280;60618;40.084;32.908;2023-04-05T00:47:23;88653.50;;;7.09;81.83
72585;BME280;60618;40.084;32.908;2023-04-05T00:49:50;88657.38;;;7.14;81.88
72585;BME280;60618;40.084;32.908;2023-04-05T00:52:17;88658.34;;;7.17;82.10
72585;BME280;60618;40.084;32.908;2023-04-05T00:54:44;88655.75;;;7.22;81.99
72585;BME280;60618;40.084;32.908;2023-04-05T00:57:11;88666.06;;;7.15;82.30
72585;BME280;60618;40.084;32.908;2023-04-05T00:59:39;88673.03;;;7.12;82.65
72585;BME280;60618;40.084;32.908;2023-04-05T01:02:31;88664.72;;;7.30;81.08
72585;BME280;60618;40.084;32.908;2023-04-05T01:05:02;88677.31;;;7.41;80.93
72585;BME280;60618;40.084;32.908;2023-04-05T01:07:47;88680.09;;;7.58;80.09
72585;BME280;60618;40.084;32.908;2023-04-05T01:10:16;88676.53;;;7.66;79.54
72585;BME280;60618;40.084;32.908;2023-04-05T01:12:48;88682.56;;;7.73;78.98
72585;BME280;60618;40.084;32.908;2023-04-05T01:15:15;88682.31;;;7.71;78.74
72585;BME280;60618;40.084;32.908;2023-04-05T01:17:42;88669.78;;;7.71;78.67
72585;BME280;60618;40.084;32.908;2023-04-05T01:20:10;88670.28;;;7.69;78.34
72585;BME280;60618;40.084;32.908;2023-04-05T01:34:02;88681.16;;;7.77;77.50
72585;BME280;60618;40.084;32.908;2023-04-05T01:36:44;88686.47;;;7.77;77.48
72585;BME280;60618;40.084;32.908;2023-04-05T01:39:14;88692.06;;;6.90;80.65
72585;BME280;60618;40.084;32.908;2023-04-05T01:41:42;88695.28;;;6.48;82.76
72585;BME280;60618;40.084;32.908;2023-04-05T01:44:09;88693.44;;;6.34;83.88
72585;BME280;60618;40.084;32.908;2023-04-05T01:46:36;88685.75;;;6.56;83.46
72585;BME280;60618;40.084;32.908;2023-04-05T01:49:03;88681.88;;;6.77;82.20
72585;BME280;60618;40.084;32.908;2023-04-05T01:51:30;88687.16;;;7.03;81.29
72585;BME280;60618;40.084;32.908;2023-04-05T01:53:58;88685.81;;;6.88;81.79
72585;BME280;60618;40.084;32.908;2023-04-05T01:56:25;88690.16;;;6.91;82.06
72585;BME280;60618;40.084;32.908;2023-04-05T01:58:52;88690.34;;;7.13;80.92
72585;BME280;60618;40.084;32.908;2023-04-05T02:01:19;88685.88;;;7.25;80.50
72585;BME280;60618;40.084;32.908;2023-04-05T02:03:46;88682.31;;;7.33;80.13
72585;BME280;60618;40.084;32.908;2023-04-05T02:06:13;88687.25;;;7.46;79.31
72585;BME280;60618;40.084;32.908;2023-04-05T02:08:40;88681.00;;;7.55;78.94
72585;BME280;60618;40.084;32.908;2023-04-05T02:11:07;88691.19;;;7.62;79.13
72585;BME280;60618;40.084;32.908;2023-04-05T02:13:34;88692.44;;;7.66;78.93
72585;BME280;60618;40.084;32.908;2023-04-05T02:16:01;88697.28;;;7.74;78.41
72585;BME280;60618;40.084;32.908;2023-04-05T02:18:28;88688.38;;;7.77;78.33
72585;BME280;60618;40.084;32.908;2023-04-05T02:21:06;88674.63;;;7.73;78.56
72585;BME280;60618;40.084;32.908;2023-04-05T02:23:33;88688.88;;;7.75;78.51
72585;BME280;60618;40.084;32.908;2023-04-05T02:26:00;88683.34;;;7.79;78.29
72585;BME280;60618;40.084;32.908;2023-04-05T02:28:27;88686.53;;;7.88;77.86
72585;BME280;60618;40.084;32.908;2023-04-05T02:30:54;88688.19;;;7.86;77.92
72585;BME280;60618;40.084;32.908;2023-04-05T02:33:21;88685.53;;;7.86;77.65
72585;BME280;60618;40.084;32.908;2023-04-05T02:35:49;88697.59;;;7.87;77.95
72585;BME280;60618;40.084;32.908;2023-04-05T02:38:17;88697.59;;;7.87;78.05
72585;BME280;60618;40.084;32.908;2023-04-05T02:40:48;88696.88;;;7.49;79.80
72585;BME280;60618;40.084;32.908;2023-04-05T02:43:15;88700.13;;;7.33;80.95
72585;BME280;60618;40.084;32.908;2023-04-05T02:45:42;88692.78;;;7.48;80.25
72585;BME280;60618;40.084;32.908;2023-04-05T02:48:12;88692.63;;;7.63;79.58
72585;BME280;60618;40.084;32.908;2023-04-05T02:50:39;88695.63;;;7.76;79.79
72585;BME280;60618;40.084;32.908;2023-04-05T02:53:08;88700.34;;;7.61;80.16
72585;BME280;60618;40.084;32.908;2023-04-05T02:55:35;88689.91;;;7.52;80.15
72585;BME280;60618;40.084;32.908;2023-04-05T02:58:01;88692.59;;;7.57;79.51
72585;BME280;60618;40.084;32.908;2023-04-05T03:00:28;88703.13;;;7.15;80.80
72585;BME280;60618;40.084;32.908;2023-04-05T03:02:55;88706.56;;;6.95;82.36
72585;BME280;60618;40.084;32.908;2023-04-05T03:05:22;88700.72;;;6.85;82.81
72585;BME280;60618;40.084;32.908;2023-04-05T03:07:50;88704.44;;;6.99;82.97
72585;BME280;60618;40.084;32.908;2023-04-05T03:10:18;88711.56;;;7.19;82.40
72585;BME280;60618;40.084;32.908;2023-04-05T03:12:45;88707.72;;;7.51;80.86
72585;BME280;60618;40.084;32.908;2023-04-05T03:15:13;88707.16;;;7.73;79.96
72585;BME280;60618;40.084;32.908;2023-04-05T03:17:40;88705.81;;;7.89;79.09
72585;BME280;60618;40.084;32.908;2023-04-05T03:20:07;88720.31;;;7.99;79.10
72585;BME280;60618;40.084;32.908;2023-04-05T03:22:34;88721.97;;;7.91;80.22
72585;BME280;60618;40.084;32.908;2023-04-05T03:25:01;88730.38;;;7.84;80.29
72585;BME280;60618;40.084;32.908;2023-04-05T03:27:28;88736.34;;;7.79;81.08
72585;BME280;60618;40.084;32.908;2023-04-05T03:29:55;88735.41;;;7.82;80.80
72585;BME280;60618;40.084;32.908;2023-04-05T03:32:22;88729.81;;;7.74;81.09
72585;BME280;60618;40.084;32.908;2023-04-05T03:34:49;88718.25;;;7.77;81.76
72585;BME280;60618;40.084;32.908;2023-04-05T03:37:16;88727.47;;;7.50;83.04
72585;BME280;60618;40.084;32.908;2023-04-05T03:39:43;88726.78;;;7.24;84.47
72585;BME280;60618;40.084;32.908;2023-04-05T03:42:10;88729.13;;;7.16;85.84
72585;BME280;60618;40.084;32.908;2023-04-05T03:44:37;88737.03;;;7.10;85.63
72585;BME280;60618;40.084;32.908;2023-04-05T03:47:03;88729.75;;;7.31;84.53
72585;BME280;60618;40.084;32.908;2023-04-05T03:49:30;88737.31;;;7.44;84.14
72585;BME280;60618;40.084;32.908;2023-04-05T03:51:57;88737.84;;;7.54;83.55
72585;BME280;60618;40.084;32.908;2023-04-05T03:54:24;88742.53;;;7.64;82.83
72585;BME280;60618;40.084;32.908;2023-04-05T03:56:51;88747.59;;;7.68;82.54
72585;BME280;60618;40.084;32.908;2023-04-05T03:59:18;88743.44;;;7.56;83.15
72585;BME280;60618;40.084;32.908;2023-04-05T04:01:45;88752.78;;;7.51;82.97
72585;BME280;60618;40.084;32.908;2023-04-05T04:04:12;88758.84;;;7.57;82.28
72585;BME280;60618;40.084;32.908;2023-04-05T04:06:39;88757.00;;;7.69;82.25
72585;BME280;60618;40.084;32.908;2023-04-05T04:09:12;88752.59;;;7.60;83.39
72585;BME280;60618;40.084;32.908;2023-04-05T04:11:40;88751.88;;;7.60;84.97
72585;BME280;60618;40.084;32.908;2023-04-05T04:14:07;88754.34;;;7.69;84.68
72585;BME280;60618;40.084;32.908;2023-04-05T04:16:33;88756.88;;;7.84;84.92
72585;BME280;60618;40.084;32.908;2023-04-05T04:19:00;88755.56;;;8.05;84.75
72585;BME280;60618;40.084;32.908;2023-04-05T04:21:27;88753.03;;;8.28;84.66
72585;BME280;60618;40.084;32.908;2023-04-05T04:23:54;88754.06;;;8.36;84.28
72585;BME280;60618;40.084;32.908;2023-04-05T04:26:21;88752.38;;;8.38;84.11
72585;BME280;60618;40.084;32.908;2023-04-05T04:28:48;88762.63;;;8.19;84.03
72585;BME280;60618;40.084;32.908;2023-04-05T04:31:15;88764.94;;;8.01;85.26
72585;BME280;60618;40.084;32.908;2023-04-05T04:33:42;88768.31;;;8.01;85.24
72585;BME280;60618;40.084;32.908;2023-04-05T04:36:09;88766.50;;;8.18;86.67
72585;BME280;60618;40.084;32.908;2023-04-05T04:38:36;88764.72;;;8.47;85.60
72585;BME280;60618;40.084;32.908;2023-04-05T04:41:06;88765.66;;;8.44;84.74
72585;BME280;60618;40.084;32.908;2023-04-05T04:43:33;88772.03;;;8.63;85.40
72585;BME280;60618;40.084;32.908;2023-04-05T04:46:00;88769.69;;;8.34;85.38
72585;BME280;60618;40.084;32.908;2023-04-05T04:48:27;88777.47;;;8.00;87.05
72585;BME280;60618;40.084;32.908;2023-04-05T04:50:54;88766.88;;;7.68;87.43
72585;BME280;60618;40.084;32.908;2023-04-05T04:53:20;88772.66;;;7.67;87.75
72585;BME280;60618;40.084;32.908;2023-04-05T04:55:49;88770.66;;;7.56;86.46
72585;BME280;60618;40.084;32.908;2023-04-05T04:58:16;88763.97;;;7.66;87.20
72585;BME280;60618;40.084;32.908;2023-04-05T05:00:43;88770.38;;;7.54;86.45
72585;BME280;60618;40.084;32.908;2023-04-05T05:03:11;88775.47;;;7.58;86.19
72585;BME280;60618;40.084;32.908;2023-04-05T05:05:42;88772.28;;;7.54;86.35
72585;BME280;60618;40.084;32.908;2023-04-05T05:08:10;88772.59;;;7.61;86.20
72585;BME280;60618;40.084;32.908;2023-04-05T05:10:37;88776.53;;;7.40;87.01
72585;BME280;60618;40.084;32.908;2023-04-05T05:13:04;88779.34;;;7.31;88.96
72585;BME280;60618;40.084;32.908;2023-04-05T05:15:31;88779.97;;;7.20;89.69
72585;BME280;60618;40.084;32.908;2023-04-05T05:17:58;88783.69;;;7.08;89.58
72585;BME280;60618;40.084;32.908;2023-04-05T05:20:25;88782.06;;;7.10;88.63
72585;BME280;60618;40.084;32.908;2023-04-05T05:22:53;88785.75;;;6.98;88.24
72585;BME280;60618;40.084;32.908;2023-04-05T05:25:20;88784.09;;;7.01;87.90
72585;BME280;60618;40.084;32.908;2023-04-05T05:27:48;88786.69;;;6.95;88.83
72585;BME280;60618;40.084;32.908;2023-04-05T05:30:16;88791.88;;;6.84;89.83
72585;BME280;60618;40.084;32.908;2023-04-05T05:32:43;88785.41;;;6.85;91.21
72585;BME280;60618;40.084;32.908;2023-04-05T05:35:09;88786.44;;;6.73;90.73
72585;BME280;60618;40.084;32.908;2023-04-05T05:37:36;88787.50;;;6.81;91.05
72585;BME280;60618;40.084;32.908;2023-04-05T05:40:04;88795.91;;;6.79;92.32
72585;BME280;60618;40.084;32.908;2023-04-05T05:42:31;88796.63;;;6.80;91.81
72585;BME280;60618;40.084;32.908;2023-04-05T05:45:02;88793.53;;;6.81;92.04
72585;BME280;60618;40.084;32.908;2023-04-05T05:47:30;88787.34;;;6.90;92.90
72585;BME280;60618;40.084;32.908;2023-04-05T05:49:57;88785.25;;;6.94;92.83
72585;BME280;60618;40.084;32.908;2023-04-05T05:52:24;88797.34;;;7.01;92.58
72585;BME280;60618;40.084;32.908;2023-04-05T05:54:51;88794.25;;;7.02;92.13
72585;BME280;60618;40.084;32.908;2023-04-05T05:57:18;88796.25;;;7.13;91.75
72585;BME280;60618;40.084;32.908;2023-04-05T05:59:45;88789.56;;;7.18;91.75
72585;BME280;60618;40.084;32.908;2023-04-05T06:02:12;88793.25;;;7.26;91.22
72585;BME280;60618;40.084;32.908;2023-04-05T06:04:39;88789.06;;;7.39;90.95
72585;BME280;60618;40.084;32.908;2023-04-05T06:07:06;88789.81;;;7.46;90.84
72585;BME280;60618;40.084;32.908;2023-04-05T06:09:33;88795.84;;;7.46;90.46
72585;BME280;60618;40.084;32.908;2023-04-05T06:12:00;88798.84;;;7.59;89.93
72585;BME280;60618;40.084;32.908;2023-04-05T06:14:27;88798.19;;;7.70;89.19
72585;BME280;60618;40.084;32.908;2023-04-05T06:16:53;88795.69;;;7.87;89.48
72585;BME280;60618;40.084;32.908;2023-04-05T06:19:21;88806.88;;;8.02;88.08
72585;BME280;60618;40.084;32.908;2023-04-05T06:21:48;88806.59;;;7.94;86.88
72585;BME280;60618;40.084;32.908;2023-04-05T06:24:15;88808.34;;;8.03;88.41
72585;BME280;60618;40.084;32.908;2023-04-05T06:26:41;88805.50;;;8.12;87.89
72585;BME280;60618;40.084;32.908;2023-04-05T06:29:08;88808.81;;;8.02;87.43
72585;BME280;60618;40.084;32.908;2023-04-05T06:31:36;88803.94;;;7.94;86.91
72585;BME280;60618;40.084;32.908;2023-04-05T06:34:03;88805.09;;;7.88;87.77
72585;BME280;60618;40.084;32.908;2023-04-05T06:36:31;88808.38;;;7.77;87.35
72585;BME280;60618;40.084;32.908;2023-04-05T06:38:58;88807.41;;;7.75;88.16
72585;BME280;60618;40.084;32.908;2023-04-05T06:41:25;88807.13;;;7.73;88.83
72585;BME280;60618;40.084;32.908;2023-04-05T06:43:52;88814.09;;;7.70;88.56
72585;BME280;60618;40.084;32.908;2023-04-05T06:46:18;88815.31;;;7.69;87.93
72585;BME280;60618;40.084;32.908;2023-04-05T06:48:45;88810.25;;;7.71;88.35
72585;BME280;60618;40.084;32.908;2023-04-05T06:51:12;88814.06;;;7.64;88.43
72585;BME280;60618;40.084;32.908;2023-04-05T06:53:39;88817.16;;;7.57;88.90
72585;BME280;60618;40.084;32.908;2023-04-05T06:56:06;88820.25;;;7.56;89.71
72585;BME280;60618;40.084;32.908;2023-04-05T06:58:33;88821.72;;;7.57;90.40
72585;BME280;60618;40.084;32.908;2023-04-05T07:01:00;88830.66;;;7.59;91.01
72585;BME280;60618;40.084;32.908;2023-04-05T07:03:27;88845.44;;;7.72;90.89
72585;BME280;60618;40.084;32.908;2023-04-05T07:05:57;88834.97;;;7.88;90.72
72585;BME280;60618;40.084;32.908;2023-04-05T07:08:26;88846.13;;;7.98;90.44
72585;BME280;60618;40.084;32.908;2023-04-05T07:10:53;88844.25;;;8.04;91.17
72585;BME280;60618;40.084;32.908;2023-04-05T07:13:21;88841.91;;;8.12;91.99
72585;BME280;60618;40.084;32.908;2023-04-05T07:15:48;88854.63;;;8.02;92.23
72585;BME280;60618;40.084;32.908;2023-04-05T07:18:16;88843.78;;;8.06;91.88
72585;BME280;60618;40.084;32.908;2023-04-05T07:20:47;88852.47;;;8.06;91.26
72585;BME280;60618;40.084;32.908;2023-04-05T07:23:14;88845.00;;;8.36;91.19
72585;BME280;60618;40.084;32.908;2023-04-05T07:25:41;88852.59;;;8.60;90.78
72585;BME280;60618;40.084;32.908;2023-04-05T07:28:08;88854.94;;;8.47;88.42
72585;BME280;60618;40.084;32.908;2023-04-05T07:30:35;88850.53;;;8.38;88.22
72585;BME280;60618;40.084;32.908;2023-04-05T07:33:02;88857.47;;;8.30;88.43
72585;BME280;60618;40.084;32.908;2023-04-05T07:35:29;88861.88;;;8.07;87.23
72585;BME280;60618;40.084;32.908;2023-04-05T07:37:56;88856.66;;;8.18;88.46
72585;BME280;60618;40.084;32.908;2023-04-05T07:40:22;88855.13;;;8.38;87.08
72585;BME280;60618;40.084;32.908;2023-04-05T07:42:49;88870.13;;;8.46;86.91
72585;BME280;60618;40.084;32.908;2023-04-05T07:45:16;88858.81;;;8.46;86.92
72585;BME280;60618;40.084;32.908;2023-04-05T07:47:43;88865.31;;;8.45;86.36
72585;BME280;60618;40.084;32.908;2023-04-05T07:50:10;88870.00;;;8.67;87.81
72585;BME280;60618;40.084;32.908;2023-04-05T07:52:37;88868.31;;;8.64;85.62
72585;BME280;60618;40.084;32.908;2023-04-05T07:55:04;88876.09;;;8.78;84.38
72585;BME280;60618;40.084;32.908;2023-04-05T07:57:31;88869.91;;;8.93;83.88
72585;BME280;60618;40.084;32.908;2023-04-05T07:59:58;88871.63;;;9.01;83.41
72585;BME280;60618;40.084;32.908;2023-04-05T08:02:25;88876.03;;;9.10;82.12
72585;BME280;60618;40.084;32.908;2023-04-05T08:04:52;88881.63;;;9.23;83.22
72585;BME280;60618;40.084;32.908;2023-04-05T08:07:19;88867.16;;;9.30;79.87
72585;BME280;60618;40.084;32.908;2023-04-05T08:09:46;88876.88;;;9.61;79.36
72585;BME280;60618;40.084;32.908;2023-04-05T08:12:12;88884.47;;;9.90;76.44
72585;BME280;60618;40.084;32.908;2023-04-05T08:14:39;88881.06;;;9.84;74.87
72585;BME280;60618;40.084;32.908;2023-04-05T08:17:06;88876.94;;;9.83;74.82
72585;BME280;60618;40.084;32.908;2023-04-05T08:19:33;88880.34;;;9.89;77.12
72585;BME280;60618;40.084;32.908;2023-04-05T08:22:00;88880.13;;;10.10;76.77
72585;BME280;60618;40.084;32.908;2023-04-05T08:24:27;88877.91;;;9.86;74.62
72585;BME280;60618;40.084;32.908;2023-04-05T08:26:54;88880.13;;;9.99;76.70
72585;BME280;60618;40.084;32.908;2023-04-05T08:29:20;88876.22;;;9.88;77.23
72585;BME280;60618;40.084;32.908;2023-04-05T08:31:47;88877.41;;;9.71;75.78
72585;BME280;60618;40.084;32.908;2023-04-05T08:34:14;88863.13;;;9.68;74.26
72585;BME280;60618;40.084;32.908;2023-04-05T08:36:41;88870.91;;;9.88;75.07
72585;BME280;60618;40.084;32.908;2023-04-05T08:39:08;88870.88;;;9.77;74.82
72585;BME280;60618;40.084;32.908;2023-04-05T08:41:35;88864.84;;;9.77;75.46
72585;BME280;60618;40.084;32.908;2023-04-05T08:44:09;88865.34;;;9.81;76.31
72585;BME280;60618;40.084;32.908;2023-04-05T08:46:36;88865.59;;;10.00;76.51
72585;BME280;60618;40.084;32.908;2023-04-05T08:49:07;88860.03;;;10.14;74.85
72585;BME280;60618;40.084;32.908;2023-04-05T08:51:38;88862.47;;;10.23;74.57
72585;BME280;60618;40.084;32.908;2023-04-05T08:54:05;88864.66;;;10.36;73.10
72585;BME280;60618;40.084;32.908;2023-04-05T08:56:33;88855.72;;;10.34;73.18
72585;BME280;60618;40.084;32.908;2023-04-05T08:59:01;88866.31;;;10.11;73.95
72585;BME280;60618;40.084;32.908;2023-04-05T09:01:29;88863.69;;;10.17;73.93
72585;BME280;60618;40.084;32.908;2023-04-05T09:04:04;88854.97;;;10.39;72.08
72585;BME280;60618;40.084;32.908;2023-04-05T09:06:34;88852.97;;;10.84;74.35
72585;BME280;60618;40.084;32.908;2023-04-05T09:09:05;88847.50;;;11.29;73.62
72585;BME280;60618;40.084;32.908;2023-04-05T09:11:33;88847.34;;;11.57;70.29
72585;BME280;60618;40.084;32.908;2023-04-05T09:14:04;88840.81;;;12.05;70.74
72585;BME280;60618;40.084;32.908;2023-04-05T09:16:39;88845.69;;;11.95;66.15
72585;BME280;60618;40.084;32.908;2023-04-05T09:19:07;88847.00;;;11.83;68.61
72585;BME280;60618;40.084;32.908;2023-04-05T09:22:00;88847.16;;;11.49;66.42
72585;BME280;60618;40.084;32.908;2023-04-05T09:24:34;88848.88;;;11.41;65.64
72585;BME280;60618;40.084;32.908;2023-04-05T09:27:09;88843.75;;;11.54;67.90
72585;BME280;60618;40.084;32.908;2023-04-05T09:29:39;88838.19;;;11.52;67.22
72585;BME280;60618;40.084;32.908;2023-04-05T09:32:08;88843.28;;;11.50;67.88
72585;BME280;60618;40.084;32.908;2023-04-05T09:34:37;88846.69;;;11.45;69.48
72585;BME280;60618;40.084;32.908;2023-04-05T09:37:15;88831.78;;;11.66;64.23
72585;BME280;60618;40.084;32.908;2023-04-05T09:39:43;88842.31;;;11.53;65.68
72585;BME280;60618;40.084;32.908;2023-04-05T09:42:14;88833.69;;;11.77;65.44
72585;BME280;60618;40.084;32.908;2023-04-05T09:44:58;88842.28;;;12.00;65.04
72585;BME280;60618;40.084;32.908;2023-04-05T09:47:30;88843.47;;;12.05;65.76
72585;BME280;60618;40.084;32.908;2023-04-05T09:49:58;88847.03;;;11.77;65.28
72585;BME280;60618;40.084;32.908;2023-04-05T09:52:29;88826.03;;;11.57;65.72
72585;BME280;60618;40.084;32.908;2023-04-05T09:54:59;88839.41;;;11.51;66.65
72585;BME280;60618;40.084;32.908;2023-04-05T09:57:27;88835.03;;;11.48;65.12
72585;BME280;60618;40.084;32.908;2023-04-05T09:59:54;88831.44;;;11.46;64.52
72585;BME280;60618;40.084;32.908;2023-04-05T10:02:21;88843.03;;;11.48;64.44
72585;BME280;60618;40.084;32.908;2023-04-05T10:04:49;88842.00;;;11.62;63.47
72585;BME280;60618;40.084;32.908;2023-04-05T10:07:18;88838.78;;;11.75;61.23
72585;BME280;60618;40.084;32.908;2023-04-05T10:09:46;88840.75;;;12.10;61.90
72585;BME280;60618;40.084;32.908;2023-04-05T10:12:26;88839.69;;;12.55;62.28
72585;BME280;60618;40.084;32.908;2023-04-05T10:14:54;88837.13;;;12.92;62.66
72585;BME280;60618;40.084;32.908;2023-04-05T10:20:19;88833.53;;;12.05;61.83
72585;BME280;60618;40.084;32.908;2023-04-05T10:31:18;88832.06;;;11.63;62.37
72585;BME280;60618;40.084;32.908;2023-04-05T10:36:49;88828.81;;;11.76;61.81
72585;BME280;60618;40.084;32.908;2023-04-05T10:39:34;88828.84;;;11.29;64.56
72585;BME280;60618;40.084;32.908;2023-04-05T10:42:34;88839.16;;;10.97;64.98
72585;BME280;60618;40.084;32.908;2023-04-05T10:45:05;88836.72;;;10.99;65.12
72585;BME280;60618;40.084;32.908;2023-04-05T10:47:37;88836.97;;;10.90;66.86
72585;BME280;60618;40.084;32.908;2023-04-05T10:50:11;88834.13;;;10.60;67.24
72585;BME280;60618;40.084;32.908;2023-04-05T10:52:44;88837.53;;;10.55;67.88
72585;BME280;60618;40.084;32.908;2023-04-05T10:55:13;88825.69;;;10.56;65.02
72585;BME280;60618;40.084;32.908;2023-04-05T10:57:42;88825.84;;;10.91;61.76
72585;BME280;60618;40.084;32.908;2023-04-05T11:00:11;88811.22;;;11.61;62.02
72585;BME280;60618;40.084;32.908;2023-04-05T11:02:39;88809.31;;;12.28;61.35
72585;BME280;60618;40.084;32.908;2023-04-05T11:05:07;88810.19;;;12.41;61.00
72585;BME280;60618;40.084;32.908;2023-04-05T11:07:53;88821.75;;;11.89;61.19
72585;BME280;60618;40.084;32.908;2023-04-05T11:10:20;88809.81;;;11.55;58.23
72585;BME280;60618;40.084;32.908;2023-04-05T11:20:45;88804.69;;;11.98;60.19
72585;BME280;60618;40.084;32.908;2023-04-05T11:23:15;88798.09;;;12.35;62.26
72585;BME280;60618;40.084;32.908;2023-04-05T11:25:56;88814.69;;;12.52;59.32
72585;BME280;60618;40.084;32.908;2023-04-05T11:28:33;88809.41;;;12.46;58.31
72585;BME280;60618;40.084;32.908;2023-04-05T11:31:20;88815.47;;;12.71;63.81
72585;BME280;60618;40.084;32.908;2023-04-05T11:36:42;88810.25;;;12.60;59.30
72585;BME280;60618;40.084;32.908;2023-04-05T11:42:02;88814.78;;;12.11;59.48
72585;BME280;60618;40.084;32.908;2023-04-05T11:47:05;88811.00;;;11.95;61.10
72585;BME280;60618;40.084;32.908;2023-04-05T11:49:32;88811.59;;;11.82;61.13
72585;BME280;60618;40.084;32.908;2023-04-05T11:52:16;88821.47;;;11.93;61.25
72585;BME280;60618;40.084;32.908;2023-04-05T11:54:44;88825.94;;;11.74;61.55
72585;BME280;60618;40.084;32.908;2023-04-05T11:57:18;88815.75;;;11.78;61.75
72585;BME280;60618;40.084;32.908;2023-04-05T11:59:45;88818.69;;;11.69;62.04
72585;BME280;60618;40.084;32.908;2023-04-05T12:02:12;88811.31;;;11.45;61.56
72585;BME280;60618;40.084;32.908;2023-04-05T12:04:39;88818.22;;;11.64;62.35
72585;BME280;60618;40.084;32.908;2023-04-05T12:07:17;88801.94;;;11.68;60.13
72585;BME280;60618;40.084;32.908;2023-04-05T12:10:07;88806.97;;;12.18;62.05
72585;BME280;60618;40.084;32.908;2023-04-05T12:12:41;88800.16;;;12.23;60.02
72585;BME280;60618;40.084;32.908;2023-04-05T12:15:11;88808.78;;;12.05;61.13
72585;BME280;60618;40.084;32.908;2023-04-05T12:17:49;88805.63;;;12.06;59.31
72585;BME280;60618;40.084;32.908;2023-04-05T12:20:21;88794.97;;;12.31;60.26
72585;BME280;60618;40.084;32.908;2023-04-05T12:22:51;88791.41;;;12.23;59.72
72585;BME280;60618;40.084;32.908;2023-04-05T12:25:19;88802.53;;;12.27;58.13
72585;BME280;60618;40.084;32.908;2023-04-05T12:27:46;88801.38;;;12.46;57.33
72585;BME280;60618;40.084;32.908;2023-04-05T12:30:15;88794.09;;;12.71;58.42
72585;BME280;60618;40.084;32.908;2023-04-05T12:35:19;88801.31;;;13.25;55.73
72585;BME280;60618;40.084;32.908;2023-04-05T12:37:46;88791.81;;;13.49;55.67
72585;BME280;60618;40.084;32.908;2023-04-05T12:40:20;88799.94;;;13.38;55.26
72585;BME280;60618;40.084;32.908;2023-04-05T12:42:47;88794.84;;;13.58;53.55
72585;BME280;60618;40.084;32.908;2023-04-05T12:45:14;88795.09;;;13.55;55.42
72585;BME280;60618;40.084;32.908;2023-04-05T12:47:49;88809.34;;;13.25;55.65
72585;BME280;60618;40.084;32.908;2023-04-05T12:50:18;88794.38;;;13.54;53.54
72585;BME280;60618;40.084;32.908;2023-04-05T12:55:22;88821.66;;;13.53;54.35
72585;BME280;60618;40.084;32.908;2023-04-05T12:57:54;88816.88;;;13.46;55.14
72585;BME280;60618;40.084;32.908;2023-04-05T13:00:21;88818.69;;;13.56;55.69
72585;BME280;60618;40.084;32.908;2023-04-05T13:02:49;88824.78;;;13.57;54.86
72585;BME280;60618;40.084;32.908;2023-04-05T13:05:16;88815.00;;;13.41;55.89
72585;BME280;60618;40.084;32.908;2023-04-05T13:07:43;88816.66;;;13.44;56.92
72585;BME280;60618;40.084;32.908;2023-04-05T13:10:10;88828.44;;;13.35;57.31
72585;BME280;60618;40.084;32.908;2023-04-05T13:12:37;88833.47;;;13.20;58.46
72585;BME280;60618;40.084;32.908;2023-04-05T13:15:04;88828.28;;;13.27;60.89
72585;BME280;60618;40.084;32.908;2023-04-05T13:17:32;88830.31;;;13.40;61.96
72585;BME280;60618;40.084;32.908;2023-04-05T13:19:59;88826.16;;;13.20;61.82
72585;BME280;60618;40.084;32.908;2023-04-05T13:22:25;88830.34;;;13.16;61.78
72585;BME280;60618;40.084;32.908;2023-04-05T13:24:52;88823.53;;;13.39;62.96
72585;BME280;60618;40.084;32.908;2023-04-05T13:27:19;88815.63;;;13.66;61.67
72585;BME280;60618;40.084;32.908;2023-04-05T13:29:46;88807.41;;;13.63;57.92
72585;BME280;60618;40.084;32.908;2023-04-05T13:32:13;88810.88;;;13.40;58.68
72585;BME280;60618;40.084;32.908;2023-04-05T13:34:40;88817.53;;;13.33;59.53
72585;BME280;60618;40.084;32.908;2023-04-05T13:37:07;88821.28;;;13.24;60.71
72585;BME280;60618;40.084;32.908;2023-04-05T13:39:34;88818.81;;;13.26;60.58
72585;BME280;60618;40.084;32.908;2023-04-05T13:42:01;88823.31;;;13.56;61.08
72585;BME280;60618;40.084;32.908;2023-04-05T13:44:28;88819.63;;;13.97;58.93
72585;BME280;60618;40.084;32.908;2023-04-05T13:46:55;88819.75;;;14.36;57.48
72585;BME280;60618;40.084;32.908;2023-04-05T13:49:22;88818.94;;;14.41;56.01
72585;BME280;60618;40.084;32.908;2023-04-05T13:51:49;88826.19;;;14.28;56.66